CLASSIFICA

ORVIETO WINE MARATHON

Orvieto (Pg)

(19/03/2017)

DIVISIONI:
GF     MF     CLASSIFICA:   ASSOLUTA    M     F    
CATEGORIE:   TUTTE    |   ELITE   |   ELITE MASTER   |   JUNIORES   |   M1   |   M2   |   M3   |   M4   |   M5   |   M6   |   M7   |   W1   |   W2  
FILTRO:
  Atleta      Team        Pulisci       Atleti classificati GF: 450  

Cliccare sulle colonne per cambiare ordinamento Pagina:   | 1 | | 2 | | 3 | | 4 | | 5 | | 6 | | 7 | | 8 | | 9 |
Azioni Pos. M/F Cat. P.Cat. Pett Naz Atleta Squadra Tempo Distacco in tempo Distacco in metri Km/h
11ELITE11CRISI EMANUELECANNONDALE RH-RACING01:48:07 00:00:00 0 23.308
22M11386GATTI GIOVANNIASD MTBSANTAMARINELLA CICLIMONTANIN01:49:18 00:01:11 454 23.056
33ELITE211PIERPAOLI LORENZOTEAM CINGOLANI01:51:10 00:03:03 1.152 22.669
44ELITE32CRISI ROBERTOCANNONDALE RH-RACING01:52:23 00:04:16 1.594 22.423
55ELITE430CAPPONI STEFANOPRO BIKE RIDING TEAM01:52:37 00:04:30 1.678 22.377
66ELITE525RIDOLFI RICCARDOCENTRO ITALIA BIKE MONTANINI01:52:53 00:04:46 1.773 22.324
77ELITE614BALLONI ALFREDOASD CUSTOM4.IT CYCLING TEAM01:53:00 00:04:53 1.815 22.301
88ELITE715CICCANTI MARCOBOTTECCHIA FACTORY TEAM01:53:09 00:05:02 1.868 22.271
99ELITE816PIGNATI ALBERTOBICI ADVENTURE TEAM A.S.D.01:54:29 00:06:22 2.335 22.012
1010M3131FOLCARELLI MASSIMORACE MOUNTAIN FOLCARELLI C.T.01:55:21 00:07:14 2.633 21.847
1111ELITE94ROCCHETTI LEOPOLDOBIKE THERAPY A.S.D.01:56:31 00:08:24 3.027 21.628
1212ELITE109PIACENTINI MATTEORACE MOUNTAIN FOLCARELLI C.T.01:56:50 00:08:43 3.133 21.569
1313M2113DOMINICI EMILIANOG.S.CICLOTECH01:57:46 00:09:39 3.441 21.398
1414ELITE MASTER18PRIANTE FEDERICOHAIBIKE LAWLEY FACTORY TEAM01:58:01 00:09:54 3.523 21.353
1515ELITE MASTER2435ROSSI FEDERICOTEAM CINGOLANI01:59:03 00:10:56 3.857 21.168
1616M22374CELLINI ALESSIOCTM CENTRO DEDICATO AL CICLISMO ASD01:59:48 00:11:41 4.095 21.035
1717M12257PERUZZI ALESSANDROASD GRAMS BIKE01:59:48 00:11:41 4.095 21.035
1818ELITE MASTER366BONIFAZI SIMONECENTRO ITALIA BIKE MONTANINI02:00:17 00:12:10 4.248 20.951
1919M23620GUIDUCCI ANGELOTEAM BIKE CIVITAVECCHIA02:00:26 00:12:19 4.295 20.924
2020M24107CODIGNONI LUCAMC2 BIKE02:00:49 00:12:42 4.414 20.858
2121M41159GIOVANE SILVIOG.S. VIGILI DEL FUOCO02:01:34 00:13:27 4.646 20.729
2222M42618GAMBELLI MASSIMOTEAM CINGOLANI02:02:18 00:14:11 4.870 20.605
2323M32204MARTELLA ALFREDOMC2 BIKE02:02:29 00:14:22 4.926 20.574
2424ELITE MASTER424TORELLI PIERLUIGITEAM BIKE CIVITAVECCHIA02:02:33 00:14:26 4.946 20.563
2525M13124DICATALDO CHRSTIANASD LARIS BIKE02:02:46 00:14:39 5.011 20.527
2626ELITE1119DEL GIOVANE SIMONEPRD SPORT FACTORY TEAM02:03:00 00:14:53 5.082 20.488
2727M25295ROSSINI GIORGIOA.S.D. CRAZY BIKE02:03:55 00:15:48 5.355 20.336
2828M51377GORIETTI MARCOU.C. PETRIGNANO A.S.D.02:04:28 00:16:21 5.517 20.246
2929M33116DE PROSPERIS GIULIOASD CUSTOM4.IT CYCLING TEAM02:04:32 00:16:25 5.536 20.236
3030M14134FAZZINI GIULIOCASTELTROSINO SUPERBIKE02:05:00 00:16:53 5.672 20.160
3131M15373CELLINI MARCOCTM CENTRO DEDICATO AL CICLISMO ASD02:05:01 00:16:54 5.677 20.157
3232M52375GRASSI ZEFFERINOKENTO RACING TEAM02:05:15 00:17:08 5.745 20.120
3333ELITE127ALECCI STEFANOPRO BIKE RIDING TEAM02:05:38 00:17:31 5.855 20.058
3434M16339VITALE FRANCESCOU.C. PETRIGNANO A.S.D.02:05:50 00:17:43 5.913 20.027
3535M43450MOSTARDA DARIOMTB CLUB RIETI02:06:36 00:18:29 6.131 19.905
3636M17640COLAIACOVO MATTEOASD BIKE SHOCK TEAM02:06:51 00:18:44 6.202 19.866
3737M3472BUGIOLACCHIO LUCABIKERS RACING TEAM02:07:03 00:18:56 6.258 19.835
3838ELITE1334MARIANI ANTONIOBIKE THERAPY A.S.D.02:07:35 00:19:28 6.408 19.752
3939M44302SANTOS ABREU NUNOTRIONO RACING MEDICAL FREM02:07:58 00:19:51 6.514 19.693
4040ELITE MASTER5335VENTURINI IACOPOASD LARIS BIKE02:08:14 00:20:07 6.588 19.652
4141ELITE MASTER6461PIANCATELLI VALERIOASD TEAM PALOMBARA SABINA (CSI)02:08:18 00:20:11 6.607 19.642
4242M35165GRELLI EMANUELERACING BIKES SC PARLESCA02:08:20 00:20:13 6.616 19.636
4343ELITE1429DESANTIS ALESSANDROMTB CLUB SPOLETO02:08:32 00:20:25 6.671 19.606
4444M26609CIARROCCHI DAVIDARES BIKE TEAM ASD02:08:40 00:20:33 6.708 19.586
4545M18233NATALINI GIUSEPPED'ASCENZIO BIKE02:08:47 00:20:40 6.740 19.568
4646M36465MERCANTI GIOVANNIHGV CICLI CONTE RACING TEAM02:08:56 00:20:49 6.781 19.545
4747M37315SIRCHI FRANCESCOMTB CASTIGLION DEL LAGO02:08:56 00:20:49 6.781 19.545
4848M38250PATACCA GABRIELED'ASCENZIO BIKE02:09:18 00:21:11 6.880 19.490
4949M53142FROSINI FABIOG.S. TESTI CICLI A.S.D.02:09:21 00:21:14 6.894 19.482
5050M4543AGOSTINELLI LUCAU.C. PETRIGNANO A.S.D.02:09:47 00:21:40 7.011 19.417
5151M27305SASSINI MARCOCASTELTROSINO SUPERBIKE02:09:53 00:21:46 7.038 19.402
5252ELITE MASTER7856ZOCCOLANTI MATTIAASD BIKELAND TEAM BIKE 200302:10:20 00:22:13 7.159 19.335
5353M39333VALENTE MIRKOTRIONO RACING MEDICAL FREM02:10:33 00:22:26 7.217 19.303
5454M310371BOSSI ANGELOAVEZZANO CYCLING TEAM02:10:35 00:22:28 7.226 19.298
5555M19407CALZUOLA CRISTIANA.S.D. BEST BIKE02:10:38 00:22:31 7.239 19.291
5656ELITE MASTER8128FABBRIZI LUCAG.C. MELANIA02:10:47 00:22:40 7.279 19.269
5757ELITE MASTER9108COMMODI VALENTINOA.S.D. BEST BIKE02:10:55 00:22:48 7.314 19.249
5858ELITE MASTER10196MARCELLI ALESSIOD'ASCENZIO BIKE02:11:01 00:22:54 7.341 19.234
5959M311186LUZI LUIGICASTELTROSINO SUPERBIKE02:11:19 00:23:12 7.420 19.190
6060M54207MASSARUCCI ERNELIOTRIONO RACING MEDICAL FREM02:11:19 00:23:12 7.420 19.190
6161M61263PIERELLI SANTE LUIGITEAM CINGOLANI02:11:36 00:23:29 7.494 19.149
6262M46285RICCIONI MASSIMOA.S.D. GRUPPO CICLISTICO MATELICA02:11:39 00:23:32 7.507 19.142
6363M62228MOSCHETTI MARIORACING BIKES SC PARLESCA02:11:40 00:23:33 7.512 19.139
6464ELITE MASTER11434FILISTINI STEFANOTRIONO RACING MEDICAL FREM02:11:44 00:23:37 7.529 19.130
6565M28409MARINELLI FABIOA.S.D. BEST BIKE02:11:48 00:23:41 7.547 19.120
6666M55255PERAIO MARCOASD LARIS BIKE02:12:14 00:24:07 7.659 19.057
6767M2967BONUCCHI ALESSANDROG.S.CICLOTECH02:12:28 00:24:21 7.720 19.024
6868M47376MARZIALI STEFANOA.S.D. G.C. TONDI SPORT02:12:49 00:24:42 7.810 18.974
6969ELITE1510ZAMPARINI GIUSEPPEG.S. AVIS AMELIA A.S.D.02:12:55 00:24:48 7.836 18.959
7070M4849ANDREANI MICHELEG.S. TESTI CICLI A.S.D.02:13:16 00:25:09 7.926 18.910
7171M210259PETRINI STEFANOMC2 BIKE02:13:21 00:25:14 7.947 18.898
7272M211209MASTRINI MARCOA.S.D. BIKERS NOCERA UMBRA02:13:26 00:25:19 7.968 18.886
7373ELITE1637COLELLA ELIAPRO BIKE RIDING TEAM02:13:44 00:25:37 8.045 18.844
7474M212336VENTURINI SIMONEU.C. PETRIGNANO A.S.D.02:13:56 00:25:49 8.095 18.815
7575ELITE MASTER12500CAVESE DANIELEA.S.D. MTB RUOTE MATTE CECCANO02:14:01 00:25:54 8.116 18.804
7676M213178LISPI SIMONEMC2 BIKE02:14:19 00:26:12 8.192 18.762
7777M21453BAIOCCO DANIELEU.C. PETRIGNANO A.S.D.02:14:32 00:26:25 8.247 18.731
7878M31239SANTONI EMILIANOA.S.D IRON BIKE02:14:40 00:26:33 8.280 18.713
7979M4956BAROLA ROBERTOU.C. PETRIGNANO A.S.D.02:14:49 00:26:42 8.317 18.692
8080ELITE MASTER13622IANNI ANDREAMTB FERENTINO BIKER ASD02:14:53 00:26:46 8.334 18.683
8181JUNIORES112MORINI ANTONYMTB FERENTINO BIKER ASD02:14:54 00:26:47 8.338 18.681
8282M215283RE LUCABIKERS IN LIBERTA'02:15:15 00:27:08 8.425 18.632
8383JUNIORES228CIOCCI DANIELEMTB CASTRUM A.S.D.02:15:34 00:27:27 8.504 18.589
8484M313331TROTTI DAVIDA.S.D. TEAM BIKE MIRANDA02:15:37 00:27:30 8.516 18.582
8585M314219MEZZANOTTE ANTONIOASD CUSTOM4.IT CYCLING TEAM02:15:37 00:27:30 8.516 18.582
8686M31569BRANCHINELLI MATTEOTRIONO RACING MEDICAL FREM02:15:46 00:27:39 8.553 18.561
8787M410127EDOARDINI MAURIZIOMTB CLUB RIETI02:15:48 00:27:41 8.561 18.557
8888M316199MARIANANTONI GIOVANNIMTB CLUB RIETI02:15:48 00:27:41 8.561 18.557
8989M110163GRASSINI ALESSANDRODIEFFE BIKE TEAM02:15:48 00:27:41 8.561 18.557
9090ELITE MASTER14322SUGONI FRANCESCOASD GRAMS BIKE02:16:02 00:27:55 8.619 18.525
9191ELITE MASTER15120DI EMIDIO GIANLUCACASTELTROSINO SUPERBIKE02:16:03 00:27:56 8.623 18.523
9292M41151ARCALENI CARLOASD BIKELAND TEAM BIKE 200302:16:22 00:28:15 8.700 18.480
9393ELITE MASTER16145GALLI MARINOCASTELTROSINO SUPERBIKE02:16:30 00:28:23 8.733 18.462
9494JUNIORES320PELLICCIONI DANIELEPRD SPORT FACTORY TEAM02:16:51 00:28:44 8.818 18.414
9595M56221MICHETTONI LUCABIKERS IN LIBERTA'02:17:50 00:29:43 9.055 18.283
9696JUNIORES418SPLENDORI ANDREAPRD SPORT FACTORY TEAM02:17:55 00:29:48 9.075 18.272
9797JUNIORES522LOCCI MATTIAA.S.D. TEAM BIKE MIRANDA02:18:10 00:30:03 9.134 18.239
9898ELITE MASTER17279PROIETTI CARLOMTB CLUB SPOLETO02:18:34 00:30:27 9.229 18.186
9999M71428SARTI STEFANOTRIONO RACING MEDICAL FREM02:18:39 00:30:32 9.249 18.175
100100M412164GRAZIUSO RAFFAELERACING BIKES SC PARLESCA02:18:51 00:30:44 9.296 18.149
101101M216133FARINELLI PAOLOU.C. PETRIGNANO A.S.D.02:19:15 00:31:08 9.390 18.097
102102M217312SILVESTRI DANIELEMTB CLUB SPOLETO02:19:21 00:31:14 9.413 18.084
103103M41393CEDRONI PAOLOMTB CLUB SPOLETO02:20:12 00:32:05 9.611 17.974
104104M218118DI BONIFACIO DOMENICOASD JEKO MTB TEAM02:20:35 00:32:28 9.699 17.925
105105M111105CIUCCI MARCOMTB CASTIGLION DEL LAGO02:20:38 00:32:31 9.711 17.919
106106M41457BASTA VINCENZO CARMINEASD CUSTOM4.IT CYCLING TEAM02:20:47 00:32:40 9.745 17.900
107107M317296RUFINI LUCIANOMTB CLUB RIETI02:20:55 00:32:48 9.775 17.883
108108M57144GALLI LANFRANCOASD A.S.C. CICLI CLEMENTI02:20:58 00:32:51 9.787 17.877
109109M219482PAOLETTI VITTORIOMTB MONTEFIASCONE02:21:04 00:32:57 9.810 17.864
110110M72616BONCIANI RAULASD CICLI TONDI02:21:05 00:32:58 9.814 17.862
111111M415615MENICHETTI LUCAASD CICLI TONDI02:21:20 00:33:13 9.870 17.830
112112M220607CASTRATORI LUCABIKE THERAPY ASD02:21:24 00:33:17 9.886 17.822
113113JUNIORES66RAGONESI GIACOMOASD MTBSANTAMARINELLA CICLIMONTANIN02:21:27 00:33:20 9.897 17.816
114114M63635TOZZI MARIOAPD CIOCIARIA BIKE02:21:52 00:33:45 9.991 17.763
115115M31896CERNICCHI WALTER GIANNIDIEFFE BIKE TEAM02:22:06 00:33:59 10.044 17.734
116116M41661BIANCHINI DONATELLOMTB CASTIGLION DEL LAGO02:22:41 00:34:34 10.174 17.662
117117M417187MACCABEI ANDREACSI TERNI02:22:50 00:34:43 10.208 17.643
118118M221613BACOCCO FABIOTEAM BIKE CIVITAVECCHIA02:22:52 00:34:45 10.215 17.639
119119M22288CASCIANELLI MAUROTRIONO RACING MEDICAL FREM02:22:55 00:34:48 10.226 17.633
120120JUNIORES732MARIANI CHRISTIANASD MTBSANTAMARINELLA CICLIMONTANIN02:23:03 00:34:56 10.256 17.616
121121M41892CECERA GIANFRANCESCOMTB CLUB SPOLETO02:23:06 00:34:59 10.267 17.610
122122M223634DI PROSPERO DANIELEDRAKE TEAM CISTERNA ASD02:23:10 00:35:03 10.282 17.602
123123ELITE MASTER1890CASTELLANI MARCODIEFFE BIKE TEAM02:23:15 00:35:08 10.300 17.592
124124M224179LIUZZA LEONARDOU.C. PETRIGNANO A.S.D.02:23:18 00:35:11 10.311 17.586
125125M419281RAGUGINI ANDREA PIOASD GS AVIS GUALDO TADINO02:23:23 00:35:16 10.330 17.575
126126M225154GIANGROSSI GABRIELEBIKERS IN LIBERTA'02:23:26 00:35:19 10.341 17.569
127127M226617FORTI CRISTIANASD CICLI TONDI02:23:42 00:35:35 10.400 17.537
128128M64614MANCINI CARLOA.S.D. G.C. TONDI SPORT02:23:47 00:35:40 10.418 17.526
129129M112328TOMASSOLI DIEGODIEFFE BIKE TEAM02:23:49 00:35:42 10.425 17.522
130130M227288RISOLDI DAVIDECICLI COPPOLA02:24:07 00:36:00 10.491 17.486
131131M11397CHIAPPINI WALTERASD LARIS BIKE02:24:23 00:36:16 10.549 17.454
132132M58126DONGIOVANNI GIUSEPPECASTELTROSINO SUPERBIKE02:24:47 00:36:40 10.636 17.405
133133M228309SCARPONI CLAUDIOMTB CLUB SPOLETO02:25:02 00:36:55 10.690 17.375
134134M114340VITTORI MARCOSTELLA BIKE SSD ARL02:25:09 00:37:02 10.715 17.361
135135ELITE MASTER19406SENSI ANDREAA.S.D. BEST BIKE02:25:23 00:37:16 10.766 17.334
136136M319408COMMODI EDOARDOA.S.D. BEST BIKE02:25:24 00:37:17 10.769 17.332
137137M420191MANCINI MASSIMODIEFFE BIKE TEAM02:25:36 00:37:29 10.812 17.308
138138ELITE MASTER20314SILVIONI MATTEOU.C. PETRIGNANO A.S.D.02:25:52 00:37:45 10.869 17.276
139139M65497TRANFA PIETROASD CICLIMONTANINI.IT02:25:57 00:37:50 10.887 17.266
140140ELITE MASTER21182LOCCI ANDREAMTB CLUB SPOLETO02:25:58 00:37:51 10.890 17.264
141141ELITE MASTER22224MONTI FABIOCASTELTROSINO SUPERBIKE02:26:05 00:37:58 10.915 17.250
142142M320489MASSACCESI VALERIOASD WITE BULL TEAM02:26:10 00:38:03 10.933 17.241
143143M115280RAGNI MATTIADIEFFE BIKE TEAM02:26:35 00:38:28 11.021 17.192
144144ELITE MASTER23636PIZZACALLA COSTANZOASSOCIAZIONE MTB SCANNO02:26:44 00:38:37 11.053 17.174
145145M66275PORNELLUZZI SILVIOASD GRAMS BIKE02:26:52 00:38:45 11.081 17.158
146146M229278PROCACCI ANTONIOASD CUCCO IN BIKE02:27:06 00:38:59 11.130 17.131
147147M59270PIUNTI ADRIANOBIKERS IN LIBERTA'02:27:08 00:39:01 11.137 17.127
148148M321235NICCACCI LEONARDOU.C. PETRIGNANO A.S.D.02:27:13 00:39:06 11.154 17.118
149149ELITE MASTER24404LIUNI MAUROPPR CYCLING02:27:17 00:39:10 11.168 17.110
150150M510310SCASSAGREPPI FABIOASD LARIS BIKE02:27:20 00:39:13 11.179 17.104
1511W1162BIANCONI FRANCESCABIKERS IN LIBERTA'02:27:21 00:39:14 11.182 17.102
152151ELITE MASTER2570BRIGNOLA GIACOMOASD JEKO MTB TEAM02:27:25 00:39:18 11.196 17.094
153152M421210MEACCI NICOCLUB SPORTIVO VILLASTRADA02:27:26 00:39:19 11.200 17.093
154153M511460FACCHINI VINCENZOASD TEAM PALOMBARA SABINA (CSI)02:27:39 00:39:32 11.245 17.067
155154M322177LIPPI MICHELEASD VELO CLUB RACING ASSISI BASTIA02:27:47 00:39:40 11.273 17.052
156155M422100CIAMBA GIANLUCAASD CICLI ROMA CLUB BIKE FARM02:27:47 00:39:40 11.273 17.052
157156M423203MARIUCCI LUCAASD CUCCO IN BIKE02:27:53 00:39:46 11.294 17.041
158157M424102CIARMA FABRIZIOCASTELTROSINO SUPERBIKE02:27:56 00:39:49 11.304 17.035
1592W12297SALVATORI MARTABIKERS RACING TEAM02:27:59 00:39:52 11.314 17.029
160158M512293ROSSI RICCARDOBIKERS IN LIBERTA'02:28:11 00:40:04 11.356 17.006
161159M323287RISI MAURIZIOMTB CLUB SPOLETO02:28:24 00:40:17 11.400 16.981
162160M230429BACCHI GIANLUCABIKER RACING TEAM02:28:38 00:40:31 11.448 16.955
163161M425160GIOVANNELLI ANTONIOMTB CLUB RIETI02:28:51 00:40:44 11.493 16.930
164162M231327TIZI LUCAMTB CLUB SPOLETO02:29:15 00:41:08 11.575 16.884
165163M51384CARBONI ANNIBALECASTELTROSINO SUPERBIKE02:29:22 00:41:15 11.598 16.871
166164M426289ROMANDINI MASSIMOCASTELTROSINO SUPERBIKE02:29:34 00:41:27 11.639 16.849
167165M514858FALLERI MASSIMILIANOASD BIKELAND TEAM BIKE 200302:29:43 00:41:36 11.670 16.832
168166M67190MANCINI UGORACING BIKES SC PARLESCA02:29:50 00:41:43 11.693 16.819
1693W135FIORI JENNIFERBIKE THERAPY A.S.D.02:30:22 00:42:15 11.801 16.759
170167M324152GENTILI ANDREAFARAM CYCLING TEAM02:30:24 00:42:17 11.807 16.755
171168ELITE MASTER26237NUCCIARELLI MARCOU.C. PETRIGNANO A.S.D.02:30:28 00:42:21 11.821 16.748
172169M232405BRUNORI SIMONEA.S.D IRON BIKE02:30:39 00:42:32 11.857 16.728
173170M68170LANCIA LEONARDOMTB CLUB SPOLETO02:30:43 00:42:36 11.871 16.720
174171M325189MALCANGI GIUSEPPEBIKERS IN LIBERTA'02:30:54 00:42:47 11.907 16.700
175172M326253PAUSILLO MASSIMILIANOASD LARIS BIKE02:31:05 00:42:58 11.944 16.680
176173M427410ROSI OSCARASD GS AVIS GUALDO TADINO02:31:08 00:43:01 11.954 16.674
177174M116470TAMIRI ROBERTOASD ETRUSKABIKE02:31:11 00:43:04 11.964 16.669
178175M11799CHITARRONI PAOLOA.S.D. CRAZY BIKE02:31:20 00:43:13 11.994 16.652
179176ELITE MASTER27462SANTARELLI DANILOASD TEAM PALOMBARA SABINA (CSI)02:31:37 00:43:30 12.050 16.621
180177M428619PRINCIPATO PAOLOLAKE BRACCIANO BIKE02:31:41 00:43:34 12.063 16.614
181178ELITE MASTER28503INCITTI IVANMTB RUOTEMATTE CECCANO02:31:43 00:43:36 12.069 16.610
182179M327113D'ANGELO ALESSANDROTRIONO RACING MEDICAL FREM02:32:00 00:43:53 12.125 16.579
183180M32881CAPANNELLI ALBERTODIEFFE BIKE TEAM02:32:03 00:43:56 12.135 16.574
184181M118125DICATALDO DAVIDECLUB SPORTIVO VILLASTRADA02:32:07 00:44:00 12.148 16.566
185182M233231NARDI OMARMC2 BIKE02:32:12 00:44:05 12.164 16.557
186183M329183LOCCI DARIOTRIONO RACING MEDICAL FREM02:32:15 00:44:08 12.174 16.552
187184M234604VARAZI LEONARDOA.S.D. OFF-TRACK02:32:21 00:44:14 12.194 16.541
188185M235451BIAGIOLI DANIELEDUE PONTI BIKELAB02:32:33 00:44:26 12.233 16.519
189186M429420MARILUNGO ANDREAA.S.D. CRAZY BIKE02:32:41 00:44:34 12.259 16.505
190187M119135FERRONI ALESSANDROFARAM CYCLING TEAM02:32:59 00:44:52 12.317 16.472
191188M430241PACI EDMONDOASD A.S.C. CICLI CLEMENTI02:33:00 00:44:53 12.320 16.471
192189M43175CALDARELLI PASQUALEFARAM CYCLING TEAM02:33:04 00:44:57 12.333 16.463
193190M73463QUINTARELLI LUCIANOASD TEAM PALOMBARA SABINA (CSI)02:33:07 00:45:00 12.343 16.458
194191M23660BENEDETTI ALESSANDROMTB CLUB SPOLETO02:33:08 00:45:01 12.346 16.456
195192M12054BALDUCCI LORENZOASD BIKELAND TEAM BIKE 200302:33:09 00:45:02 12.349 16.455
196193M121156GIOBBI MARCOCASTELTROSINO SUPERBIKE02:33:18 00:45:11 12.378 16.438
197194M515230NAPOLINI FRANCOMTB CLUB SPOLETO02:33:20 00:45:13 12.385 16.435
198195M432148GENNARI DARIOTRIONO RACING MEDICAL FREM02:33:51 00:45:44 12.484 16.380
199196M433504SCIABORDI GIANNIMTB CLUB SPOLETO02:33:54 00:45:47 12.494 16.374
200197M33073BUOMPADRE MARCOMTB CLUB SPOLETO02:33:56 00:45:49 12.500 16.371
201198M331303SANTUCCI OMARDIEFFE BIKE TEAM02:33:59 00:45:52 12.510 16.365
202199ELITE MASTER29273POLI ANDREACASTELTROSINO SUPERBIKE02:34:01 00:45:54 12.516 16.362
203200M237865CAPASSO MARCOAPD CIOCIARIA BIKE02:34:06 00:45:59 12.532 16.353
204201M516238ORLANDI GIULIANOASD CUSTOM4.IT CYCLING TEAM02:34:30 00:46:23 12.609 16.311
205202ELITE MASTER30473RIPA MANUELASD NUOVA CICLISTICA FORANO I RECCAPEZZATI02:34:36 00:46:29 12.628 16.300
206203M434494MARSIGLIETTI MICHELEASD BIKELAND TEAM BIKE 200302:34:53 00:46:46 12.681 16.270
207204M238608LESTI FABIOBIKE THERAPY ASD02:35:27 00:47:20 12.788 16.211
208205M74284RE ADAMOBIKERS IN LIBERTA'02:35:43 00:47:36 12.838 16.183
209206M239853IMPERIALI GABRIELEASD TEAM PALOMBARA SABINA (CSI)02:36:04 00:47:57 12.904 16.147
210207M240298SANCHEZ TORQUATI RODRIGO JAVIERCASTELTROSINO SUPERBIKE02:36:06 00:47:59 12.910 16.144
211208M517427ONORATI MASSIMILIANOASD BIKESHOP TEAM ROMA02:36:16 00:48:09 12.941 16.126
212209M332855GABRIELE SIMONEAPD CIOCIARIA BIKE02:36:25 00:48:18 12.969 16.111
213210M435276POSATI LUCAG.S. AVIS AMELIA A.S.D.02:36:40 00:48:33 13.015 16.085
214211M436317SPINELLI ANDREABIKERS IN LIBERTA'02:36:49 00:48:42 13.043 16.070
215212M122430SPERANZA MANUELA.S.D. TEMERARI TIVOLI02:37:05 00:48:58 13.092 16.042
216213M241854DE FRANCESCO DANILOASD TEAM PALOMBARA SABINA (CSI)02:37:36 00:49:29 13.187 15.990
217214M242638MARIANI FABRIZIOASD BIKE SHOCK TEAM02:37:47 00:49:40 13.220 15.971
218215M69149GENTILI EMIDIOCASTELTROSINO SUPERBIKE02:38:15 00:50:08 13.305 15.924
219216M243493PENTOLINI LUCAASD BIKELAND TEAM BIKE 200302:38:18 00:50:11 13.314 15.919
220217M244492MOSCIONI ALESSIOASD BIKELAND TEAM BIKE 200302:38:18 00:50:11 13.314 15.919
221218M123495ALUNNI GIORGIOUMBERTIDE CYCLING TEAM02:38:32 00:50:25 13.356 15.896
222219M518499LOSCARSO ADRIANOA.S.D. MTB RUOTE MATTE CECCANO02:38:39 00:50:32 13.377 15.884
223220M610338VIOLA ERNESTOASD CT MASSA MARTANA02:38:43 00:50:36 13.389 15.877
224221M124198MARINI ALESSANDROASD CICLI ROMA CLUB BIKE FARM02:39:23 00:51:16 13.509 15.811
2254W14115D'ANGELO SARAA.S.D. CRAZY BIKE02:39:44 00:51:37 13.571 15.776
226222M333162GRANTURCHELLI LORENZOUMBERTIDE CYCLING TEAM02:39:46 00:51:39 13.577 15.773
227223M437477RUCO MAURIZIOASD GRAMS BIKE02:39:47 00:51:40 13.580 15.771
228224ELITE MASTER31153GIAMPICCOLO LUCAMTB CLUB SPOLETO02:39:59 00:51:52 13.616 15.752
229225M125329TOMMASI MARCOCENTRO ITALIA BIKE MONTANINI02:40:00 00:51:53 13.619 15.750
230226M126172LELI ROSSANOBIKERS IN LIBERTA'02:40:10 00:52:03 13.648 15.734
231227M611449NUCCI GIANFRANCOTROMBADORES02:40:15 00:52:08 13.663 15.725
232228M127637MARIANI ROBERTOASSOCIAZIONE MTB SCANNO02:40:19 00:52:12 13.675 15.719
233229M334422ROSSI ALESSIOGRUPPO SPORTIVO ESERCITO02:40:21 00:52:14 13.681 15.716
234230M245496SURIANI ALESSANDRODIEFFE BIKE TEAM02:40:29 00:52:22 13.704 15.703
235231M24679CAMELI GIUSEPPEBIKERS IN LIBERTA'02:40:30 00:52:23 13.707 15.701
236232M438485SALVATORE PAOLOPRO BIKE RIDING TEAM02:40:51 00:52:44 13.769 15.667
237233M335225MORETTI GIUSEPPEASD CT MASSA MARTANA02:40:54 00:52:47 13.778 15.662
238234M247863MISCIO DAMIANOLAKE BIKE TEAM A.S.D.02:41:00 00:52:53 13.795 15.652
239235M439265PIGNOTTI GIAMPIEROBIKERS IN LIBERTA'02:41:01 00:52:54 13.798 15.651
240236M519601GALLO ROBERTOASD ALSIUM BIKE TEAM02:41:24 00:53:17 13.865 15.613
241237M128236NOBILI GIANMARIOASD CT MASSA MARTANA02:41:35 00:53:28 13.897 15.596
242238M336318SPOSINI FEDERICOG.S. TESTI CICLI A.S.D.02:42:16 00:54:09 14.015 15.530
243239M129214MENICHETTI LORENZODIEFFE BIKE TEAM02:42:41 00:54:34 14.087 15.490
244240M440291ROSATI ANDREADIEFFE BIKE TEAM02:42:42 00:54:35 14.090 15.489
245241M441440SAGRAFENA MASSIMILIANOASD COLLI ALBANI MTB02:42:54 00:54:47 14.124 15.470
246242M612208MASSETTI SIMONEBIKERS IN LIBERTA'02:43:00 00:54:53 14.141 15.460
247243M44252BACCI QUINTILIOA.S.D. TEAM MATE'02:43:07 00:55:00 14.161 15.449
248244M337446MARIANI DIEGOPEDALA CHE TI PASSA02:43:16 00:55:09 14.187 15.435
249245M248129PADIGLIONI FEDERICOFREEBIKE MARSCIANO02:43:16 00:55:09 14.187 15.435
250246M52095CENSINI PAOLOUMBERTIDE CYCLING TEAM02:43:27 00:55:20 14.218 15.418
251247M443188MACELLARI MAURIZIOLA BASE - TERNI02:43:35 00:55:28 14.241 15.405
2525W1536BRUGUIER GRETACICLISSIMO BIKE TEAM02:43:39 00:55:32 14.252 15.399
253248M338262PICUCCI FRANCESCOASD JEKO MTB TEAM02:43:54 00:55:47 14.294 15.375
254249M130871MASTROPAOLO SIMONEAPD CIOCIARIA BIKE02:44:35 00:56:28 14.409 15.311
2556W16372DI LORENZO SABRINAA.S.D. DI LORENZO02:44:37 00:56:30 14.415 15.308
256250M444266PIMPOLARI MAUROTRIONO RACING MEDICAL FREM02:44:40 00:56:33 14.423 15.304
257251M521218MERLI TONINOBIKERS IN LIBERTA'02:44:57 00:56:50 14.471 15.277
258252M522862BRUGUIER PIER RENATOCICLISSIMO BIKE TEAM02:45:01 00:56:54 14.482 15.271
259253M131215MENNOLI FRANCESCOMTB CLUB SPOLETO02:45:10 00:57:03 14.507 15.257
260254M249313SILVESTRI DAVIDMTB CLUB SPOLETO02:45:13 00:57:06 14.515 15.253
261255ELITE MASTER32161GLADIOLI SIMONECASTELTROSINO SUPERBIKE02:45:37 00:57:30 14.581 15.216
262256M339476SANTANGELO ROBERTOBIKE PLUS VOLATA CYCLING02:45:50 00:57:43 14.617 15.196
263257M250861MARCHESI MARCOMONTAIN BIKE SANTAFIORA02:45:51 00:57:44 14.620 15.195
264258M523184LUCCI ANDREAG.S. AVIS AMELIA A.S.D.02:45:58 00:57:51 14.639 15.184
265259M445206MASSARELLI LUCATRIONO RACING MEDICAL FREM02:45:58 00:57:51 14.639 15.184
266260M34041ZANNOLI PAOLOMTB CLUB SPOLETO02:46:01 00:57:54 14.647 15.179
267261M446442REINO SILVANOPEDALA CHE TI PASSA02:46:09 00:58:02 14.669 15.167
268262M447445ROSSI ANTONIOPEDALA CHE TI PASSA02:46:09 00:58:02 14.669 15.167
269263ELITE MASTER33261PICCIAFUOCO NICOLO'G.S. TESTI CICLI A.S.D.02:46:14 00:58:07 14.683 15.159
270264M34183CAPRIONI MASSIMOBIKERS IN LIBERTA'02:46:19 00:58:12 14.697 15.152
271265M25158BATINO MASSIMOASD LARIS BIKE02:46:30 00:58:23 14.727 15.135
272266M132122DI GREGORIO GABRIELEASD CICLI ROMA CLUB BIKE FARM02:46:35 00:58:28 14.740 15.128
273267M342109CREZZINI EMANUELEASD LARIS BIKE02:46:39 00:58:32 14.751 15.122
274268ELITE MASTER34867MANSUETI MATTEOAPD CIOCIARIA BIKE02:46:44 00:58:37 14.765 15.114
275269M343173LELLI REMOBIKERS IN LIBERTA'02:46:59 00:58:52 14.806 15.091
276270ELITE MASTER35274POLI ROBERTOCASTELTROSINO SUPERBIKE02:47:11 00:59:04 14.838 15.073
277271M448217MERLI PAOLOBIKERS IN LIBERTA'02:47:18 00:59:11 14.857 15.063
278272M52494CENCI FABRIZIOMTB CLUB SPOLETO02:47:34 00:59:27 14.900 15.039
279273M449439BIANCHI MAUROCICLO TEAM MTB RUNNERS02:47:38 00:59:31 14.911 15.033
280274M13355BARBANERA DIEGOMTB CASTIGLION DEL LAGO02:48:00 00:59:53 14.970 15.000
281275M75456ASCANI MASSIMOA.S.D. TEAM BIKE MIRANDA02:48:05 00:59:58 14.984 14.993
282276ELITE MASTER36131FALCONI ALBERTOA.C.D. SC CENTRO BICI TEAM TERNI02:48:17 01:00:10 15.016 14.975
283277M344258PETRANGELI ANDREAPRO TEAM EUROBICI ORVIETO02:48:18 01:00:11 15.019 14.973
284278M345474GIURELLI FRANCESCOA.S.D. CICLI MONTANINI02:48:33 01:00:26 15.059 14.951
285279ELITE MASTER37639DI BARTOLO FILIBERTOASD BIKE SHOCK TEAM02:48:35 01:00:28 15.064 14.948
286280M346458MATARAZZI MARCOASD FREE BIKE02:48:50 01:00:43 15.104 14.926
287281M347864PALAZZETTI ANTONIOASD BIKELAND TEAM BIKE 200302:48:55 01:00:48 15.117 14.919
288282M525117DE SANTIS DARIOCASTELTROSINO SUPERBIKE02:49:01 01:00:54 15.133 14.910
289283M613143FUMINI DANIELETRIONO RACING MEDICAL FREM02:49:08 01:01:01 15.151 14.900
290284ELITE MASTER38605MARIOTTI MARIOFREE BIKE MARSCIANO ASD02:49:10 01:01:03 15.157 14.897
291285M45048AMICI GIOVANNIASD JEKO MTB TEAM02:49:12 01:01:05 15.162 14.894
292286M348175LIBERATI GUIDOBIKERS IN LIBERTA'02:49:23 01:01:16 15.191 14.878
293287M349147GASPARI EMILIOCASTELTROSINO SUPERBIKE02:49:30 01:01:23 15.210 14.867
294288ELITE MASTER3947AMELI GERARDOCASTELTROSINO SUPERBIKE02:49:31 01:01:24 15.212 14.866
295289M61477CALZOLARI CLAUDIOU.C. PETRIGNANO A.S.D.02:49:48 01:01:41 15.257 14.841
296290M45138PELUCCHI ANDREAPRO TEAM EUROBICI ORVIETO02:50:06 01:01:59 15.304 14.815
297291M252212MENCARELLI STEFANOASD LARIS BIKE02:50:38 01:02:31 15.387 14.769
298292M253140FRANCESCANGELI MARCOASD JEKO MTB TEAM02:50:43 01:02:36 15.400 14.761
299293M452248PASSERI MIRCOMC2 BIKE02:50:46 01:02:39 15.408 14.757
3007W2142TOMASSINI ANNAU.C. PETRIGNANO A.S.D.02:50:47 01:02:40 15.411 14.756
301294M52640SERVO MASSIMILIANOASD BATTISTELLI EXTREME02:50:47 01:02:40 15.411 14.756
302295M453641DI PASQUALE ANDREAMTB CLUB SPOLETO02:50:48 01:02:41 15.413 14.754
303296M350194MANNI MAURIZIOTRIONO RACING MEDICAL FREM02:50:49 01:02:42 15.416 14.753
304297M527481CARLONI PIETRO GIANFRANCOMTB MONTEFIASCONE02:51:02 01:02:55 15.450 14.734
305298M254868CECCONI STEFANOAPD CIOCIARIA BIKE02:52:17 01:04:10 15.642 14.627
306299M454623CAMAIANI ENRICOG.S. CICLI GAUDENZI A.S.D.02:52:32 01:04:25 15.681 14.606
307300M351452D'ASCENZO FABIODUE PONTI BIKELAB02:52:32 01:04:25 15.681 14.606
308301M255326TESTA FILIPPOBIKERS IN LIBERTA'02:52:45 01:04:38 15.714 14.588
309302ELITE MASTER40471PERUIGINI ALESSIOASD ETRUSKABIKE02:52:58 01:04:51 15.746 14.569
310303M455403MASSINI ROSATI MARIOA.S.D IRON BIKE02:53:03 01:04:56 15.759 14.562
311304M615123DI MICHELE BRUNOCASTELTROSINO SUPERBIKE02:53:39 01:05:32 15.850 14.512
312305M352444LUCENTINI ALESSANDROPEDALA CHE TI PASSA02:54:02 01:05:55 15.907 14.480
313306M616625CORTI GUIDOTEAM VALDARNO02:54:09 01:06:02 15.925 14.470
314307M256166GRELLI MIRKODIEFFE BIKE TEAM02:54:16 01:06:09 15.942 14.461
315308M528454PALMA MICHELEDUE PONTI BIKELAB02:54:19 01:06:12 15.950 14.456
316309M529211MELA MASSIMOTRIONO RACING MEDICAL FREM02:54:19 01:06:12 15.950 14.456
317310M617240OTTAVIANI LUCADIEFFE BIKE TEAM02:54:20 01:06:13 15.952 14.455
318311M618111CROCIONE ERALDOLA BASE - TERNI02:54:33 01:06:26 15.985 14.437
319312M353859MENCARELLI LUIGITRAIL BIKE02:54:58 01:06:51 16.047 14.403
320313M45676CALVANI ROBERTOLA BASE - TERNI02:55:24 01:07:17 16.111 14.367
321314M257610BRACACCIA MATTEOASD MTBSANTAMARINELLA CICLIMONTANIN02:55:27 01:07:20 16.118 14.363
322315M258251PATRIZI GIACOMOASD LARIS BIKE02:55:32 01:07:25 16.130 14.356
323316M457138FIORUCCI FRANCESCOU.C. PETRIGNANO A.S.D.02:55:35 01:07:28 16.138 14.352
3248JUNIORES823SABATINI CARMENA.S.D. TEAM BIKE MIRANDA02:55:41 01:07:34 16.152 14.344
325317M76455ANGELETTI PIEROA.S.D. TEAM BIKE MIRANDA02:55:41 01:07:34 16.152 14.344
326318M35485CARINELLI MICHELETRIONO RACING MEDICAL FREM02:55:43 01:07:36 16.157 14.341
327319ELITE MASTER41299SANTORELLI DAVIDASD CT MASSA MARTANA02:55:55 01:07:48 16.187 14.325
328320ELITE MASTER42502DE SANCTIS RICCARDOA.S.D. MTB RUOTE MATTE CECCANO02:56:00 01:07:53 16.199 14.318
3299W22468ALATI MONICAMATESE MOUNTAINBIKE02:56:22 01:08:15 16.253 14.288
330321M458469CHIUSAROLI GIORDANOBIKE CLUB CAFE'02:56:23 01:08:16 16.255 14.287
331322M619633MENECHINI ROMANOMTB CLUB SPOLETO02:56:37 01:08:30 16.289 14.268
332323M77243PAGLIOCHINI GIOVANNIASD BIKEMOTION02:56:58 01:08:51 16.340 14.240
333324M355423ROSSI DENISCSI VITERBO02:57:04 01:08:57 16.354 14.232
334325ELITE MASTER43167IACHETTINI IACOPOGREEN CLUB02:57:19 01:09:12 16.391 14.212
335326M459411PASQUARELLI MARIOASD GS AVIS GUALDO TADINO02:57:20 01:09:13 16.393 14.211
336327M356413NATALIZI CLAUDIOFREE BIKE MARSCIANO ASD02:57:36 01:09:29 16.431 14.189
337328ELITE MASTER44306SBEI MATTEOBIKERS IN LIBERTA'02:57:40 01:09:33 16.441 14.184
338329M357226MORRONI ROBERTOTRIONO RACING MEDICAL FREM02:57:51 01:09:44 16.467 14.169
339330M358421BISSICHINI ALESSANDROGRUPPO SPORTIVO ESERCITO02:57:52 01:09:45 16.470 14.168
340331M25998CHIERCHINI MARCOASD LARIS BIKE02:58:15 01:10:08 16.525 14.137
341332M260603BUZZICOTTI ANDREAA.S.D. OFF-TRACK02:58:17 01:10:10 16.529 14.135
342333M261621GUSTINELLI LORENZOLEONARDI RACING02:58:20 01:10:13 16.537 14.131
343334M460222MOMELLA MOMELLI STEFANOG.S. TESTI CICLI A.S.D.02:58:23 01:10:16 16.544 14.127
344335M359242PACIOTTI FABIOMTB CLUB SPOLETO02:58:25 01:10:18 16.548 14.124
345336M461272POLI ANDREA DUILIOCASTELTROSINO SUPERBIKE02:58:29 01:10:22 16.558 14.119
346337M462626BRANDINI GIANPAOLOG.S. CICLI GAUDENZI A.S.D.02:58:34 01:10:27 16.570 14.112
347338M530624CIONI PAOLOCHIANTI BIKE PUNTO PACEMA02:58:36 01:10:29 16.575 14.110
34810JUNIORES926SCIUTO SARAMTB CASTRUM A.S.D.02:59:05 01:10:58 16.643 14.072
349339JUNIORES1027BONAVENTURA NICOLO'MTB CASTRUM A.S.D.02:59:05 01:10:58 16.643 14.072
350340M262486PETRUCCI GIANLUCAASD BRIETENSE CICLISMO ( CSI RIETI)02:59:21 01:11:14 16.681 14.051
351341ELITE MASTER45869PELLEGRINI RICCARDOAPD CIOCIARIA BIKE02:59:52 01:11:45 16.754 14.010
352342M134330TOSTI ADILGERIODIEFFE BIKE TEAM02:59:57 01:11:50 16.765 14.004
353343M531205MARTELLI ERMINIOBIKERS IN LIBERTA'03:00:01 01:11:54 16.775 13.999
354344M360479ANTONIOLI MASSIMORACE MOUNTAIN FOLCARELLI C.T.03:00:05 01:11:58 16.784 13.994
355345M532220MICANTI MARCOTRIONO RACING MEDICAL FREM03:00:16 01:12:09 16.810 13.979
356346M620602MORI MASSIMOA.S.D. OFF-TRACK03:00:16 01:12:09 16.810 13.979
357347M263857CAPPARUCCINI LUCAA.S.D. RAVEN TEAM03:00:28 01:12:21 16.838 13.964
358348M621141FRANCUCCI DUILIOTRIONO RACING MEDICAL FREM03:00:52 01:12:45 16.893 13.933
359349M36144ALESSANDRINI MARCOTRIONO RACING MEDICAL FREM03:01:06 01:12:59 16.926 13.915
360350M362269PITOTTI FRANCESCOTRIONO RACING MEDICAL FREM03:01:09 01:13:02 16.932 13.911
361351M533246PARRETTI GABRIELEASD LARIS BIKE03:01:27 01:13:20 16.974 13.888
362352M534433VENTURI ENRICOTRIONO RACING MEDICAL FREM03:01:29 01:13:22 16.978 13.886
363353ELITE MASTER4678CAMELI EMIDIOCASTELTROSINO SUPERBIKE03:01:59 01:13:52 17.047 13.847
364354M363424GABRIELLI GIULIANOPRO TEAM EUROBICI ORVIETO03:02:16 01:14:09 17.086 13.826
365355M463254PEA FABIOMTB CLUB BAGNAIA03:02:16 01:14:09 17.086 13.826
366356M135426CHIUCCHI DANIELEG.S. AVIS GUALDO TADINO03:02:32 01:14:25 17.122 13.806
367357M264158GIONTELLA DANIELEASD CT MASSA MARTANA03:02:48 01:14:41 17.159 13.786
368358M464227MORRONI ALESSANDROTRIONO RACING MEDICAL FREM03:03:21 01:15:14 17.233 13.744
369359M265438MERCUZIO GIUSEPPECICLO TEAM MTB RUNNERS03:03:22 01:15:15 17.235 13.743
370360M364260PEZZOLA AMERICOASD JEKO MTB TEAM03:03:31 01:15:24 17.256 13.732
371361M46568BOVINI SERGIOU.C. PETRIGNANO A.S.D.03:03:32 01:15:25 17.258 13.731
372362M136193MANDOZZI SIMONEBIKERS IN LIBERTA'03:03:42 01:15:35 17.280 13.718
373363M13771BRUFANI LORENZOU.C. PETRIGNANO A.S.D.03:03:42 01:15:35 17.280 13.718
374364M46689CASSETTA MARCOMC2 BIKE03:03:56 01:15:49 17.312 13.701
375365ELITE MASTER47447SORDI ALESSIOPEDALA CHE TI PASSA03:04:38 01:16:31 17.405 13.649
376366M266472VALENTINI ANDREAA.S.D. OFF-TRACK03:04:59 01:16:52 17.452 13.623
377367M267488CUPELLI GIANDOMENICOASD BRIETENSE CICLISMO ( CSI RIETI)03:05:57 01:17:50 17.579 13.552
378368M365311SCIABORDI GRAZIANOMTB CLUB SPOLETO03:07:06 01:18:59 17.730 13.469
379369M535185LUCIANI DOMENICOCASTELTROSINO SUPERBIKE03:07:08 01:19:01 17.734 13.466
380370M536277PRESCIUTTI ROBERTOCASTELTROSINO SUPERBIKE03:07:15 01:19:08 17.749 13.458
381371M366480CONTI SAMUELEGLD FALISO AMICI DELLA BILLA03:07:18 01:19:11 17.756 13.454
382372M138171LATINI ANDREACASTELTROSINO SUPERBIKE03:07:19 01:19:12 17.758 13.453
383373M367334VENTURA GIUSEPPECASTELTROSINO SUPERBIKE03:07:21 01:19:14 17.762 13.451
384374M139866MACCIOMEI MARCOAPD CIOCIARIA BIKE03:07:27 01:19:20 17.775 13.444
385375JUNIORES1135ELEUTERI STEFANOMTB CLUB SPOLETO03:08:28 01:20:21 17.906 13.371
386376M268487GILARDI FILIPPOASD BRIETENSE CICLISMO ( CSI RIETI)03:08:41 01:20:34 17.933 13.356
387377M269247PASQUALINI DANIELEA.S.D. CRAZY BIKE03:08:46 01:20:39 17.944 13.350
388378M467612BASILICO ROBERTOASD LARIS BIKE03:09:25 01:21:18 18.026 13.304
389379M270320STACCINI ANDREADIEFFE BIKE TEAM03:09:33 01:21:26 18.043 13.295
390380ELITE MASTER48301SANTORI MATTEOBIKERS IN LIBERTA'03:09:38 01:21:31 18.054 13.289
391381ELITE MASTER49300SANTORI SIMONEBIKERS IN LIBERTA'03:09:41 01:21:34 18.060 13.285
392382M537611PROIETTI GILBERTOG.S. AVIS AMELIA A.S.D.03:09:59 01:21:52 18.098 13.264
393383ELITE MASTER50180LIVERANI MATTEOBIKERS IN LIBERTA'03:10:18 01:22:11 18.138 13.242
394384M622870GOBBO FRANCOAPD CIOCIARIA BIKE03:10:24 01:22:17 18.150 13.235
395385M368137FIORAVANTI PEPPINOCASTELTROSINO SUPERBIKE03:10:30 01:22:23 18.163 13.228
396386M623176LIONETTO GIANCARLOLA BASE - TERNI03:11:10 01:23:03 18.246 13.182
39711W23448SILEI LAURAPGV BIKING A.S.D.03:11:24 01:23:17 18.275 13.166
398387M369484BERTOLOTTI SIMONETEAM BIKE CIVITAVECCHIA03:12:01 01:23:54 18.351 13.124
39912W24337VERINI VALENTINACASTELTROSINO SUPERBIKE03:12:02 01:23:55 18.353 13.123
400388M53845ALIMENTI GIANLUIGIMTB CLUB SPOLETO03:12:05 01:23:58 18.359 13.119
401389M370628ROBELLINI LUCAASD I RIBELLI BY CICLI MANCINI03:12:53 01:24:46 18.457 13.065
402390M624192MANDOLESI MASSIMOBIKERS IN LIBERTA'03:13:02 01:24:55 18.476 13.055
403391ELITE MASTER51150GENTILI FABIOCASTELTROSINO SUPERBIKE03:13:03 01:24:56 18.478 13.054
40413W17101CIAMPINI CLAUDIATRIONO RACING MEDICAL FREM03:13:10 01:25:03 18.492 13.046
405392M539425MACCHIONI STEFANOA.S.D IRON BIKE03:13:33 01:25:26 18.538 13.020
406393M140467LASSANDRI MIRKOMY PLANET CORSE03:14:41 01:26:34 18.675 12.944
407394M141466CHIARI EMILIANOMTB CLUB RIETI03:14:58 01:26:51 18.709 12.925
408395M271860MORDANINI ALDOASD TEAM PALOMBARA SABINA (CSI)03:15:27 01:27:20 18.766 12.893
409396M78453SALVI OSCARDUE PONTI BIKE LAB03:15:56 01:27:49 18.824 12.862
410397M272437AMBROSI FABIOGRUPPO SPORTIVO ESERCITO03:16:59 01:28:52 18.947 12.793
411398M273441QUARCHIONI CARLOGRUPPO SPORTIVO ESERCITO03:17:00 01:28:53 18.949 12.792
412399M625412CECCHINI FULVIOA.S.D. VALLELONGA BIKE: I SENTIERI DEL LUPO03:17:42 01:29:35 19.031 12.747
413400ELITE MASTER52232NARDUCCI GIULIOASD VELO CLUB RACING ASSISI BASTIA03:18:24 01:30:17 19.112 12.702
414401ELITE MASTER53643PETRINI MICHELECICLO CLUB DERUTA03:18:26 01:30:19 19.116 12.700
415402M626256PERELLA GIOVANNIG.S. TESTI CICLI A.S.D.03:19:27 01:31:20 19.232 12.635
416403M274498REBOUL IACOPI LAURENTCICLI ROMA CLUB BIKE FARTI03:20:39 01:32:32 19.369 12.559
417404M371436GATTI MASSIMILIANOGS TESTI CICLI ASD03:20:54 01:32:47 19.397 12.544
418405M468323TADDEI ROBERTOBIKERS IN LIBERTA'03:22:22 01:34:15 19.561 12.453
419406M627271PIUNTI MAUROBIKERS IN LIBERTA'03:22:37 01:34:30 19.588 12.437
420407M628325TESTA GIUSEPPECASTELTROSINO SUPERBIKE03:23:16 01:35:09 19.660 12.398
421408M372629GONFIA MICHELEASD BIKELAND TEAM BIKE 200303:24:44 01:36:37 19.820 12.309
422409M373202MARIOTTI CARLOTRIONO RACING MEDICAL FREM03:25:32 01:37:25 19.906 12.261
423410M540151GENTILI FEDERICOGREEN CLUB03:27:09 01:39:02 20.079 12.165
424411M469294ROSSI BECCAFICO FRANCESCOG.S. TESTI CICLI A.S.D.03:27:10 01:39:03 20.080 12.164
425412M470307SCANABISSI MARCOBIKERS IN LIBERTA'03:27:14 01:39:07 20.087 12.160
426413M142632CERQUETELLI SIMONEA.S.D IRON BIKE03:27:41 01:39:34 20.135 12.134
42714W25308SCARPETTA ALESSIABIKERS IN LIBERTA'03:29:04 01:40:57 20.280 12.054
42815W26432CASTIGLIONE MAILATRIONO RACING MEDICAL FREM03:30:32 01:42:25 20.431 11.970
429414M275414SCORTECCIA MATTEOFREE BIKE MARSCIANO ASD03:31:00 01:42:53 20.479 11.943
430415M374264PIEROSARA MARCOBLU VELO' ASSOCIAZIONE SPORTIVA03:31:02 01:42:55 20.482 11.941
431416M79417BISCARINI LUIGIFREE BIKE MARSCIANO ASD03:36:00 01:47:53 20.977 11.667
432417M375475FORBICIONI DAMIANOA.S.D IRON BIKE03:36:22 01:48:15 21.012 11.647
433418M376418BORZACCHIELLO GIUSEPPEFREE BIKE MARSCIANO ASD03:39:22 01:51:15 21.299 11.488
434419M276304SANZARI VITTORIOMTB CLUB SPOLETO03:40:24 01:52:17 21.397 11.434
435420M377459MORELLI ROBERTOA.S.D. TEAM BIKE MIRANDA03:46:39 01:58:32 21.965 11.119
43616W27319SQUAZZINI GERMABNATRIONO RACING MEDICAL FREM03:53:06 02:04:59 22.519 10.811
437421M541443FRATERNALE PIEROASD PASSEPARTOUT GRUPPO BIKE TERNI03:53:07 02:05:00 22.520 10.810
438422M54280CANDELORI MAUROASD PASSEPARTOUT GRUPPO BIKE TERNI04:08:26 02:20:19 23.721 10.144
439423M62964BIROCCHI SANDROMTB CLUB SPOLETO06:00:00 04:11:53 29.386 7.000
440424M277168IACONI FABRIZIOBIKERS IN LIBERTA'06:00:00 04:11:53 29.386 7.000
441425M378332VAGNONI MAUROBIKERS IN LIBERTA'06:00:00 04:11:53 29.386 7.000
442426M143244PANICHI STEFANOCASTELTROSINO SUPERBIKE06:00:00 04:11:53 29.386 7.000
443427M379321SUCCHIELLI FRANCESCOMTB CLUB SPOLETO06:00:00 04:11:53 29.386 7.000
44417W28415ALUNNO PAOLAFREE BIKE MARSCIANO ASD06:00:00 04:11:53 29.386 7.000
44518W29419CERQUAGLIA ELISABETTAFREE BIKE MARSCIANO ASD06:00:00 04:11:53 29.386 7.000
446428M710130FAINA GRAZIANOTRIONO RACING MEDICAL FREM06:00:00 04:11:53 29.386 7.000
447429M380110CROCI ANDREABIKERS IN LIBERTA'06:00:00 04:11:53 29.386 7.000
448430M381103CIARROCCHI VINCENZOBIKERS IN LIBERTA'06:00:00 04:11:53 29.386 7.000
449431M543114D'ANGELO ROBERTOBIKERS IN LIBERTA'06:00:00 04:11:53 29.386 7.000
450432M630181LIVERANI GIOACCHINOBIKERS IN LIBERTA'06:00:00 04:11:53 29.386 7.000
Righe per pagina::     TUTTE    |   30   |   50   |   100   Pagina:   | 1 | | 2 | | 3 | | 4 | | 5 | | 6 | | 7 | | 8 | | 9 |